KBWD/BWD METAR and TAF weather

Enter ICAO airport designator
Station Type Date Time Source
KBWD METAR 2021/05/13 02:15 UTC NOAA

KBWD 130215Z AUTO 03005KT 10SM OVC021 15/11 A3030 RMK AO1


Station Type Date Time Source
KBWD Decoded METAR 2021/05/13 02:15 UTC NOAA

Brownwood, Brownwood Regional Airport, TX, United States (KBWD) 31-48N 098-57W
May 12, 2021 - 10:15 PM EDT / 2021.05.13 0215 UTC
Wind: from the NNE (030 degrees) at 6 MPH (5 KT):0
Visibility: 10 mile(s):0
Sky conditions: overcast
Temperature: 59 F (15 C)
Dew Point: 51 F (11 C)
Relative Humidity: 76%
Pressure (altimeter): 30.3 in. Hg (1026 hPa)
ob: KBWD 130215Z AUTO 03005KT 10SM OVC021 15/11 A3030 RMK AO1
cycle: 2

Station Type Date Time Source
KBWD TAF UTC NOAA

Error!

Example: see airport list